sensor_id;sensor_type;location;lat;lon;timestamp;P1;durP1;ratioP1;P2;durP2;ratioP2
40591;SDS011;26301;42.832;23.918;2023-06-26T00:02:24;21.83;;;17.52;;
40591;SDS011;26301;42.832;23.918;2023-06-26T00:04:50;19.88;;;17.80;;
40591;SDS011;26301;42.832;23.918;2023-06-26T00:07:19;21.02;;;18.52;;
40591;SDS011;26301;42.832;23.918;2023-06-26T00:09:45;18.65;;;16.75;;
40591;SDS011;26301;42.832;23.918;2023-06-26T00:12:11;18.38;;;16.13;;
40591;SDS011;26301;42.832;23.918;2023-06-26T00:14:37;19.15;;;17.27;;
40591;SDS011;26301;42.832;23.918;2023-06-26T00:17:04;18.17;;;16.27;;
40591;SDS011;26301;42.832;23.918;2023-06-26T00:19:31;20.23;;;16.88;;
40591;SDS011;26301;42.832;23.918;2023-06-26T00:21:58;18.73;;;16.75;;
40591;SDS011;26301;42.832;23.918;2023-06-26T00:24:24;21.02;;;16.05;;
40591;SDS011;26301;42.832;23.918;2023-06-26T00:26:50;16.67;;;14.98;;
40591;SDS011;26301;42.832;23.918;2023-06-26T00:29:16;19.08;;;14.80;;
40591;SDS011;26301;42.832;23.918;2023-06-26T00:31:42;16.23;;;14.23;;
40591;SDS011;26301;42.832;23.918;2023-06-26T00:34:09;16.65;;;14.75;;
40591;SDS011;26301;42.832;23.918;2023-06-26T00:36:35;15.57;;;13.82;;
40591;SDS011;26301;42.832;23.918;2023-06-26T00:39:01;15.98;;;12.40;;
40591;SDS011;26301;42.832;23.918;2023-06-26T00:41:29;17.10;;;13.50;;
40591;SDS011;26301;42.832;23.918;2023-06-26T00:43:55;15.00;;;13.40;;
40591;SDS011;26301;42.832;23.918;2023-06-26T00:46:20;14.77;;;13.27;;
40591;SDS011;26301;42.832;23.918;2023-06-26T00:48:49;17.15;;;14.48;;
40591;SDS011;26301;42.832;23.918;2023-06-26T00:51:15;16.55;;;13.27;;
40591;SDS011;26301;42.832;23.918;2023-06-26T00:53:41;15.35;;;13.85;;
40591;SDS011;26301;42.832;23.918;2023-06-26T00:56:08;17.95;;;14.05;;
40591;SDS011;26301;42.832;23.918;2023-06-26T00:58:34;15.35;;;13.75;;
40591;SDS011;26301;42.832;23.918;2023-06-26T01:01:00;17.27;;;15.25;;
40591;SDS011;26301;42.832;23.918;2023-06-26T01:03:27;18.30;;;15.55;;
40591;SDS011;26301;42.832;23.918;2023-06-26T01:05:54;18.13;;;15.95;;
40591;SDS011;26301;42.832;23.918;2023-06-26T01:08:24;19.42;;;17.10;;
40591;SDS011;26301;42.832;23.918;2023-06-26T01:10:51;21.42;;;16.33;;
40591;SDS011;26301;42.832;23.918;2023-06-26T01:13:18;21.95;;;15.95;;
40591;SDS011;26301;42.832;23.918;2023-06-26T01:15:44;18.95;;;14.95;;
40591;SDS011;26301;42.832;23.918;2023-06-26T01:18:12;18.75;;;15.43;;
40591;SDS011;26301;42.832;23.918;2023-06-26T01:20:40;17.55;;;13.90;;
40591;SDS011;26301;42.832;23.918;2023-06-26T01:23:12;16.98;;;14.43;;
40591;SDS011;26301;42.832;23.918;2023-06-26T01:28:22;17.30;;;15.30;;
40591;SDS011;26301;42.832;23.918;2023-06-26T01:30:50;20.50;;;16.17;;
40591;SDS011;26301;42.832;23.918;2023-06-26T01:33:16;17.40;;;15.48;;
40591;SDS011;26301;42.832;23.918;2023-06-26T01:35:42;18.50;;;15.93;;
40591;SDS011;26301;42.832;23.918;2023-06-26T01:43:11;19.40;;;15.13;;
40591;SDS011;26301;42.832;23.918;2023-06-26T01:45:45;16.45;;;14.77;;
40591;SDS011;26301;42.832;23.918;2023-06-26T01:48:16;20.20;;;15.00;;
40591;SDS011;26301;42.832;23.918;2023-06-26T01:50:46;18.08;;;13.50;;
40591;SDS011;26301;42.832;23.918;2023-06-26T01:53:17;16.75;;;14.65;;
40591;SDS011;26301;42.832;23.918;2023-06-26T01:55:50;15.73;;;13.98;;
40591;SDS011;26301;42.832;23.918;2023-06-26T01:58:22;17.73;;;15.07;;
40591;SDS011;26301;42.832;23.918;2023-06-26T02:00:50;18.23;;;15.57;;
40591;SDS011;26301;42.832;23.918;2023-06-26T02:03:16;17.63;;;14.70;;
40591;SDS011;26301;42.832;23.918;2023-06-26T02:05:42;18.85;;;14.43;;
40591;SDS011;26301;42.832;23.918;2023-06-26T02:08:10;18.98;;;14.88;;
40591;SDS011;26301;42.832;23.918;2023-06-26T02:10:38;17.67;;;14.88;;
40591;SDS011;26301;42.832;23.918;2023-06-26T02:13:04;20.20;;;14.02;;
40591;SDS011;26301;42.832;23.918;2023-06-26T02:15:29;18.83;;;13.20;;
40591;SDS011;26301;42.832;23.918;2023-06-26T02:17:55;15.70;;;13.48;;
40591;SDS011;26301;42.832;23.918;2023-06-26T02:20:21;19.10;;;14.05;;
40591;SDS011;26301;42.832;23.918;2023-06-26T02:22:47;16.10;;;14.48;;
40591;SDS011;26301;42.832;23.918;2023-06-26T02:25:13;15.20;;;13.35;;
40591;SDS011;26301;42.832;23.918;2023-06-26T02:27:39;16.30;;;13.07;;
40591;SDS011;26301;42.832;23.918;2023-06-26T02:30:08;16.92;;;13.32;;
40591;SDS011;26301;42.832;23.918;2023-06-26T02:32:34;15.52;;;13.82;;
40591;SDS011;26301;42.832;23.918;2023-06-26T02:35:00;18.70;;;13.48;;
40591;SDS011;26301;42.832;23.918;2023-06-26T02:37:26;18.67;;;13.68;;
40591;SDS011;26301;42.832;23.918;2023-06-26T02:39:52;15.52;;;13.55;;
40591;SDS011;26301;42.832;23.918;2023-06-26T02:42:19;15.27;;;13.48;;
40591;SDS011;26301;42.832;23.918;2023-06-26T02:44:45;17.10;;;13.48;;
40591;SDS011;26301;42.832;23.918;2023-06-26T02:47:11;14.73;;;12.82;;
40591;SDS011;26301;42.832;23.918;2023-06-26T02:49:36;16.55;;;13.18;;
40591;SDS011;26301;42.832;23.918;2023-06-26T02:52:02;16.33;;;13.40;;
40591;SDS011;26301;42.832;23.918;2023-06-26T02:54:29;16.88;;;13.65;;
40591;SDS011;26301;42.832;23.918;2023-06-26T02:56:54;19.23;;;13.35;;
40591;SDS011;26301;42.832;23.918;2023-06-26T02:59:20;14.93;;;13.40;;
40591;SDS011;26301;42.832;23.918;2023-06-26T03:01:46;15.32;;;13.25;;
40591;SDS011;26301;42.832;23.918;2023-06-26T03:04:12;16.25;;;14.63;;
40591;SDS011;26301;42.832;23.918;2023-06-26T03:06:40;15.68;;;13.50;;
40591;SDS011;26301;42.832;23.918;2023-06-26T03:09:06;16.10;;;14.40;;
40591;SDS011;26301;42.832;23.918;2023-06-26T03:11:31;17.98;;;14.20;;
40591;SDS011;26301;42.832;23.918;2023-06-26T03:13:58;20.52;;;13.85;;
40591;SDS011;26301;42.832;23.918;2023-06-26T03:16:24;17.08;;;14.45;;
40591;SDS011;26301;42.832;23.918;2023-06-26T03:18:50;18.73;;;12.98;;
40591;SDS011;26301;42.832;23.918;2023-06-26T03:21:17;16.70;;;13.88;;
40591;SDS011;26301;42.832;23.918;2023-06-26T03:23:43;17.17;;;14.10;;
40591;SDS011;26301;42.832;23.918;2023-06-26T03:26:09;15.68;;;13.30;;
40591;SDS011;26301;42.832;23.918;2023-06-26T03:28:35;19.00;;;15.02;;
40591;SDS011;26301;42.832;23.918;2023-06-26T03:31:01;18.73;;;14.45;;
40591;SDS011;26301;42.832;23.918;2023-06-26T03:33:27;20.05;;;15.35;;
40591;SDS011;26301;42.832;23.918;2023-06-26T03:35:52;16.90;;;14.73;;
40591;SDS011;26301;42.832;23.918;2023-06-26T03:38:19;17.98;;;14.57;;
40591;SDS011;26301;42.832;23.918;2023-06-26T03:40:44;16.75;;;14.35;;
40591;SDS011;26301;42.832;23.918;2023-06-26T03:43:10;19.17;;;14.48;;
40591;SDS011;26301;42.832;23.918;2023-06-26T03:45:36;16.35;;;14.45;;
40591;SDS011;26301;42.832;23.918;2023-06-26T03:48:02;17.35;;;14.48;;
40591;SDS011;26301;42.832;23.918;2023-06-26T03:50:29;15.75;;;13.77;;
40591;SDS011;26301;42.832;23.918;2023-06-26T03:52:55;19.13;;;13.77;;
40591;SDS011;26301;42.832;23.918;2023-06-26T03:55:21;18.55;;;15.32;;
40591;SDS011;26301;42.832;23.918;2023-06-26T03:57:48;20.00;;;14.75;;
40591;SDS011;26301;42.832;23.918;2023-06-26T04:00:14;20.48;;;14.80;;
40591;SDS011;26301;42.832;23.918;2023-06-26T04:02:41;18.20;;;15.20;;
40591;SDS011;26301;42.832;23.918;2023-06-26T04:05:07;17.85;;;15.95;;
40591;SDS011;26301;42.832;23.918;2023-06-26T04:07:33;18.15;;;16.25;;
40591;SDS011;26301;42.832;23.918;2023-06-26T04:10:00;18.40;;;15.60;;
40591;SDS011;26301;42.832;23.918;2023-06-26T04:12:27;24.48;;;17.35;;
40591;SDS011;26301;42.832;23.918;2023-06-26T04:14:53;24.67;;;18.50;;
40591;SDS011;26301;42.832;23.918;2023-06-26T04:17:19;22.70;;;18.70;;
40591;SDS011;26301;42.832;23.918;2023-06-26T04:19:46;20.00;;;17.80;;
40591;SDS011;26301;42.832;23.918;2023-06-26T04:22:13;20.40;;;17.45;;
40591;SDS011;26301;42.832;23.918;2023-06-26T04:24:39;20.20;;;16.70;;
40591;SDS011;26301;42.832;23.918;2023-06-26T04:27:04;19.05;;;16.27;;
40591;SDS011;26301;42.832;23.918;2023-06-26T04:29:31;17.70;;;15.90;;
40591;SDS011;26301;42.832;23.918;2023-06-26T04:31:57;18.13;;;15.45;;
40591;SDS011;26301;42.832;23.918;2023-06-26T04:34:26;17.85;;;16.02;;
40591;SDS011;26301;42.832;23.918;2023-06-26T04:36:57;20.17;;;16.20;;
40591;SDS011;26301;42.832;23.918;2023-06-26T04:39:23;17.77;;;15.88;;
40591;SDS011;26301;42.832;23.918;2023-06-26T04:41:49;20.10;;;15.65;;
40591;SDS011;26301;42.832;23.918;2023-06-26T04:44:15;17.35;;;15.00;;
40591;SDS011;26301;42.832;23.918;2023-06-26T04:46:42;18.95;;;14.85;;
40591;SDS011;26301;42.832;23.918;2023-06-26T04:49:08;20.50;;;16.60;;
40591;SDS011;26301;42.832;23.918;2023-06-26T04:51:36;20.05;;;14.07;;
40591;SDS011;26301;42.832;23.918;2023-06-26T04:54:06;14.07;;;12.40;;
40591;SDS011;26301;42.832;23.918;2023-06-26T04:56:33;11.93;;;10.50;;
40591;SDS011;26301;42.832;23.918;2023-06-26T04:59:00;18.52;;;13.32;;
40591;SDS011;26301;42.832;23.918;2023-06-26T05:01:26;13.40;;;10.45;;
40591;SDS011;26301;42.832;23.918;2023-06-26T05:03:54;13.48;;;12.13;;
40591;SDS011;26301;42.832;23.918;2023-06-26T05:06:21;15.73;;;12.68;;
40591;SDS011;26301;42.832;23.918;2023-06-26T05:08:47;13.23;;;11.82;;
40591;SDS011;26301;42.832;23.918;2023-06-26T05:11:13;13.23;;;10.88;;
40591;SDS011;26301;42.832;23.918;2023-06-26T05:13:39;12.98;;;10.85;;
40591;SDS011;26301;42.832;23.918;2023-06-26T05:16:05;13.43;;;11.10;;
40591;SDS011;26301;42.832;23.918;2023-06-26T05:18:34;15.88;;;11.30;;
40591;SDS011;26301;42.832;23.918;2023-06-26T05:21:00;13.02;;;10.82;;
40591;SDS011;26301;42.832;23.918;2023-06-26T05:23:27;13.85;;;10.23;;
40591;SDS011;26301;42.832;23.918;2023-06-26T05:25:56;11.70;;;9.70;;
40591;SDS011;26301;42.832;23.918;2023-06-26T05:28:23;11.55;;;9.45;;
40591;SDS011;26301;42.832;23.918;2023-06-26T05:30:53;15.38;;;9.85;;
40591;SDS011;26301;42.832;23.918;2023-06-26T05:33:21;10.55;;;9.45;;
40591;SDS011;26301;42.832;23.918;2023-06-26T05:35:48;11.60;;;10.18;;
40591;SDS011;26301;42.832;23.918;2023-06-26T05:38:17;14.25;;;10.02;;
40591;SDS011;26301;42.832;23.918;2023-06-26T05:40:43;13.57;;;9.32;;
40591;SDS011;26301;42.832;23.918;2023-06-26T05:43:09;14.40;;;9.65;;
40591;SDS011;26301;42.832;23.918;2023-06-26T05:45:36;13.18;;;9.95;;
40591;SDS011;26301;42.832;23.918;2023-06-26T05:48:01;11.05;;;9.15;;
40591;SDS011;26301;42.832;23.918;2023-06-26T05:50:27;11.98;;;9.45;;
40591;SDS011;26301;42.832;23.918;2023-06-26T05:52:54;10.55;;;9.23;;
40591;SDS011;26301;42.832;23.918;2023-06-26T05:55:20;13.55;;;9.63;;
40591;SDS011;26301;42.832;23.918;2023-06-26T05:57:46;12.25;;;8.80;;
40591;SDS011;26301;42.832;23.918;2023-06-26T06:00:13;13.25;;;8.98;;
40591;SDS011;26301;42.832;23.918;2023-06-26T06:02:40;10.32;;;8.95;;
40591;SDS011;26301;42.832;23.918;2023-06-26T06:05:07;12.60;;;8.68;;
40591;SDS011;26301;42.832;23.918;2023-06-26T06:07:33;10.50;;;7.70;;
40591;SDS011;26301;42.832;23.918;2023-06-26T06:10:01;9.55;;;8.20;;
40591;SDS011;26301;42.832;23.918;2023-06-26T06:12:28;12.02;;;7.90;;
40591;SDS011;26301;42.832;23.918;2023-06-26T06:14:55;11.63;;;8.57;;
40591;SDS011;26301;42.832;23.918;2023-06-26T06:17:21;15.55;;;8.45;;
40591;SDS011;26301;42.832;23.918;2023-06-26T06:19:48;15.00;;;9.50;;
40591;SDS011;26301;42.832;23.918;2023-06-26T06:22:18;10.90;;;8.32;;
40591;SDS011;26301;42.832;23.918;2023-06-26T06:24:44;13.43;;;7.88;;
40591;SDS011;26301;42.832;23.918;2023-06-26T06:27:10;9.15;;;7.47;;
40591;SDS011;26301;42.832;23.918;2023-06-26T06:29:36;7.90;;;7.10;;
40591;SDS011;26301;42.832;23.918;2023-06-26T06:32:02;9.60;;;7.28;;
40591;SDS011;26301;42.832;23.918;2023-06-26T06:34:28;11.38;;;7.50;;
40591;SDS011;26301;42.832;23.918;2023-06-26T06:36:54;11.63;;;6.95;;
40591;SDS011;26301;42.832;23.918;2023-06-26T06:39:20;8.55;;;7.05;;
40591;SDS011;26301;42.832;23.918;2023-06-26T06:41:46;9.93;;;6.38;;
40591;SDS011;26301;42.832;23.918;2023-06-26T06:44:12;9.20;;;6.05;;
40591;SDS011;26301;42.832;23.918;2023-06-26T06:46:38;9.25;;;6.10;;
40591;SDS011;26301;42.832;23.918;2023-06-26T06:49:04;6.80;;;5.25;;
40591;SDS011;26301;42.832;23.918;2023-06-26T06:51:30;7.78;;;5.82;;
40591;SDS011;26301;42.832;23.918;2023-06-26T06:53:56;10.23;;;6.13;;
40591;SDS011;26301;42.832;23.918;2023-06-26T06:56:22;9.25;;;6.70;;
40591;SDS011;26301;42.832;23.918;2023-06-26T06:58:48;8.98;;;6.82;;
40591;SDS011;26301;42.832;23.918;2023-06-26T07:01:14;8.20;;;6.35;;
40591;SDS011;26301;42.832;23.918;2023-06-26T07:03:40;11.23;;;6.95;;
40591;SDS011;26301;42.832;23.918;2023-06-26T07:06:07;9.80;;;7.00;;
40591;SDS011;26301;42.832;23.918;2023-06-26T07:08:33;12.52;;;6.93;;
40591;SDS011;26301;42.832;23.918;2023-06-26T07:10:59;9.60;;;7.18;;
40591;SDS011;26301;42.832;23.918;2023-06-26T07:13:25;11.57;;;7.20;;
40591;SDS011;26301;42.832;23.918;2023-06-26T07:15:51;8.48;;;7.10;;
40591;SDS011;26301;42.832;23.918;2023-06-26T07:18:17;7.78;;;6.13;;
40591;SDS011;26301;42.832;23.918;2023-06-26T07:20:43;7.38;;;5.88;;
40591;SDS011;26301;42.832;23.918;2023-06-26T07:23:09;7.40;;;6.68;;
40591;SDS011;26301;42.832;23.918;2023-06-26T07:25:35;7.70;;;6.88;;
40591;SDS011;26301;42.832;23.918;2023-06-26T07:28:01;10.57;;;7.65;;
40591;SDS011;26301;42.832;23.918;2023-06-26T07:30:27;9.57;;;7.13;;
40591;SDS011;26301;42.832;23.918;2023-06-26T07:32:53;7.95;;;5.82;;
40591;SDS011;26301;42.832;23.918;2023-06-26T07:35:19;7.47;;;5.93;;
40591;SDS011;26301;42.832;23.918;2023-06-26T07:37:44;7.70;;;6.00;;
40591;SDS011;26301;42.832;23.918;2023-06-26T07:40:10;9.55;;;6.10;;
40591;SDS011;26301;42.832;23.918;2023-06-26T07:42:37;6.35;;;5.43;;
40591;SDS011;26301;42.832;23.918;2023-06-26T07:45:03;9.30;;;5.22;;
40591;SDS011;26301;42.832;23.918;2023-06-26T07:47:38;6.35;;;5.70;;
40591;SDS011;26301;42.832;23.918;2023-06-26T07:50:05;8.57;;;6.85;;
40591;SDS011;26301;42.832;23.918;2023-06-26T07:52:31;8.73;;;6.13;;
40591;SDS011;26301;42.832;23.918;2023-06-26T07:54:58;8.00;;;6.30;;
40591;SDS011;26301;42.832;23.918;2023-06-26T07:57:24;7.28;;;6.40;;
40591;SDS011;26301;42.832;23.918;2023-06-26T07:59:50;8.90;;;6.70;;
40591;SDS011;26301;42.832;23.918;2023-06-26T08:02:16;7.68;;;6.20;;
40591;SDS011;26301;42.832;23.918;2023-06-26T08:04:42;8.98;;;6.32;;
40591;SDS011;26301;42.832;23.918;2023-06-26T08:07:09;12.38;;;6.68;;
40591;SDS011;26301;42.832;23.918;2023-06-26T08:09:35;8.50;;;5.63;;
40591;SDS011;26301;42.832;23.918;2023-06-26T08:12:02;7.85;;;5.75;;
40591;SDS011;26301;42.832;23.918;2023-06-26T08:14:28;8.70;;;6.15;;
40591;SDS011;26301;42.832;23.918;2023-06-26T08:16:54;8.13;;;6.13;;
40591;SDS011;26301;42.832;23.918;2023-06-26T08:19:20;7.18;;;6.47;;
40591;SDS011;26301;42.832;23.918;2023-06-26T08:21:46;9.60;;;6.20;;
40591;SDS011;26301;42.832;23.918;2023-06-26T08:24:12;9.30;;;6.35;;
40591;SDS011;26301;42.832;23.918;2023-06-26T08:26:41;10.93;;;5.63;;
40591;SDS011;26301;42.832;23.918;2023-06-26T08:29:07;8.35;;;5.47;;
40591;SDS011;26301;42.832;23.918;2023-06-26T08:31:34;7.68;;;5.70;;
40591;SDS011;26301;42.832;23.918;2023-06-26T08:34:01;10.60;;;4.78;;
40591;SDS011;26301;42.832;23.918;2023-06-26T08:36:28;12.43;;;6.80;;
40591;SDS011;26301;42.832;23.918;2023-06-26T08:38:54;14.23;;;6.78;;
40591;SDS011;26301;42.832;23.918;2023-06-26T08:41:20;9.02;;;6.22;;
40591;SDS011;26301;42.832;23.918;2023-06-26T08:43:46;12.57;;;6.18;;
40591;SDS011;26301;42.832;23.918;2023-06-26T08:46:13;11.75;;;5.72;;
40591;SDS011;26301;42.832;23.918;2023-06-26T08:48:40;11.02;;;6.25;;
40591;SDS011;26301;42.832;23.918;2023-06-26T08:51:12;7.93;;;5.88;;
40591;SDS011;26301;42.832;23.918;2023-06-26T08:54:02;9.52;;;5.93;;
40591;SDS011;26301;42.832;23.918;2023-06-26T08:59:05;11.88;;;5.68;;
40591;SDS011;26301;42.832;23.918;2023-06-26T09:01:32;7.32;;;5.28;;
40591;SDS011;26301;42.832;23.918;2023-06-26T09:03:58;6.78;;;5.82;;
40591;SDS011;26301;42.832;23.918;2023-06-26T09:06:24;8.27;;;5.80;;
40591;SDS011;26301;42.832;23.918;2023-06-26T09:08:50;8.88;;;5.85;;
40591;SDS011;26301;42.832;23.918;2023-06-26T09:11:17;10.68;;;5.80;;
40591;SDS011;26301;42.832;23.918;2023-06-26T09:13:43;7.22;;;5.28;;
40591;SDS011;26301;42.832;23.918;2023-06-26T09:16:09;7.82;;;5.40;;
40591;SDS011;26301;42.832;23.918;2023-06-26T09:18:36;6.90;;;5.65;;
40591;SDS011;26301;42.832;23.918;2023-06-26T09:21:08;11.18;;;6.40;;
40591;SDS011;26301;42.832;23.918;2023-06-26T09:23:35;8.40;;;6.03;;
40591;SDS011;26301;42.832;23.918;2023-06-26T09:26:02;10.50;;;6.65;;
40591;SDS011;26301;42.832;23.918;2023-06-26T09:28:29;9.13;;;5.82;;
40591;SDS011;26301;42.832;23.918;2023-06-26T09:31:00;6.95;;;5.10;;
40591;SDS011;26301;42.832;23.918;2023-06-26T09:33:33;7.07;;;5.60;;
40591;SDS011;26301;42.832;23.918;2023-06-26T09:36:06;7.72;;;5.47;;
40591;SDS011;26301;42.832;23.918;2023-06-26T09:38:34;6.85;;;5.32;;
40591;SDS011;26301;42.832;23.918;2023-06-26T09:41:02;7.68;;;5.70;;
40591;SDS011;26301;42.832;23.918;2023-06-26T09:43:28;9.70;;;5.55;;
40591;SDS011;26301;42.832;23.918;2023-06-26T09:45:56;8.68;;;5.75;;
40591;SDS011;26301;42.832;23.918;2023-06-26T09:48:23;6.63;;;4.95;;
40591;SDS011;26301;42.832;23.918;2023-06-26T09:50:49;7.57;;;5.55;;
40591;SDS011;26301;42.832;23.918;2023-06-26T09:53:15;6.32;;;4.50;;
40591;SDS011;26301;42.832;23.918;2023-06-26T09:55:52;7.32;;;4.60;;
40591;SDS011;26301;42.832;23.918;2023-06-26T09:58:18;6.38;;;4.15;;
40591;SDS011;26301;42.832;23.918;2023-06-26T10:00:44;9.63;;;4.45;;
40591;SDS011;26301;42.832;23.918;2023-06-26T10:03:10;9.30;;;4.85;;
40591;SDS011;26301;42.832;23.918;2023-06-26T10:05:38;6.97;;;4.45;;
40591;SDS011;26301;42.832;23.918;2023-06-26T10:08:04;6.20;;;4.65;;
40591;SDS011;26301;42.832;23.918;2023-06-26T10:10:32;9.50;;;5.03;;
40591;SDS011;26301;42.832;23.918;2023-06-26T10:13:09;6.38;;;4.72;;
40591;SDS011;26301;42.832;23.918;2023-06-26T10:15:40;7.15;;;4.95;;
40591;SDS011;26301;42.832;23.918;2023-06-26T10:18:11;6.88;;;4.95;;
40591;SDS011;26301;42.832;23.918;2023-06-26T10:20:38;6.80;;;5.32;;
40591;SDS011;26301;42.832;23.918;2023-06-26T10:23:06;8.98;;;4.65;;
40591;SDS011;26301;42.832;23.918;2023-06-26T10:25:34;8.10;;;4.93;;
40591;SDS011;26301;42.832;23.918;2023-06-26T10:28:06;8.38;;;5.50;;
40591;SDS011;26301;42.832;23.918;2023-06-26T10:30:39;11.65;;;6.13;;
40591;SDS011;26301;42.832;23.918;2023-06-26T10:33:06;8.30;;;5.38;;
40591;SDS011;26301;42.832;23.918;2023-06-26T10:35:33;7.07;;;4.88;;
40591;SDS011;26301;42.832;23.918;2023-06-26T10:38:06;8.73;;;5.30;;
40591;SDS011;26301;42.832;23.918;2023-06-26T10:40:45;5.45;;;4.22;;
40591;SDS011;26301;42.832;23.918;2023-06-26T10:43:14;9.27;;;5.22;;
40591;SDS011;26301;42.832;23.918;2023-06-26T10:45:44;7.57;;;5.03;;
40591;SDS011;26301;42.832;23.918;2023-06-26T10:48:17;7.10;;;4.32;;
40591;SDS011;26301;42.832;23.918;2023-06-26T10:50:47;8.43;;;4.15;;
40591;SDS011;26301;42.832;23.918;2023-06-26T11:03:40;7.35;;;4.47;;
40591;SDS011;26301;42.832;23.918;2023-06-26T11:06:18;7.28;;;4.40;;
40591;SDS011;26301;42.832;23.918;2023-06-26T11:08:50;6.22;;;4.65;;
40591;SDS011;26301;42.832;23.918;2023-06-26T11:14:20;7.13;;;4.90;;
40591;SDS011;26301;42.832;23.918;2023-06-26T11:16:51;6.63;;;5.00;;
40591;SDS011;26301;42.832;23.918;2023-06-26T11:19:18;6.70;;;4.72;;
40591;SDS011;26301;42.832;23.918;2023-06-26T11:21:44;5.18;;;4.30;;
40591;SDS011;26301;42.832;23.918;2023-06-26T11:24:11;5.78;;;4.75;;
40591;SDS011;26301;42.832;23.918;2023-06-26T11:26:39;7.50;;;4.38;;
40591;SDS011;26301;42.832;23.918;2023-06-26T11:29:09;6.70;;;4.10;;
40591;SDS011;26301;42.832;23.918;2023-06-26T11:31:37;6.55;;;4.43;;
40591;SDS011;26301;42.832;23.918;2023-06-26T11:34:10;6.22;;;4.72;;
40591;SDS011;26301;42.832;23.918;2023-06-26T11:36:38;5.05;;;4.07;;
40591;SDS011;26301;42.832;23.918;2023-06-26T11:39:07;7.88;;;4.85;;
40591;SDS011;26301;42.832;23.918;2023-06-26T11:41:34;5.25;;;4.60;;
40591;SDS011;26301;42.832;23.918;2023-06-26T11:44:01;5.07;;;4.40;;
40591;SDS011;26301;42.832;23.918;2023-06-26T11:46:28;6.50;;;4.70;;
40591;SDS011;26301;42.832;23.918;2023-06-26T11:48:55;9.65;;;4.85;;
40591;SDS011;26301;42.832;23.918;2023-06-26T11:51:21;5.68;;;4.55;;
40591;SDS011;26301;42.832;23.918;2023-06-26T11:53:47;6.55;;;4.47;;
40591;SDS011;26301;42.832;23.918;2023-06-26T11:56:14;6.80;;;4.57;;
40591;SDS011;26301;42.832;23.918;2023-06-26T11:58:58;8.00;;;4.78;;
40591;SDS011;26301;42.832;23.918;2023-06-26T12:01:35;6.75;;;5.10;;
40591;SDS011;26301;42.832;23.918;2023-06-26T12:04:06;6.53;;;5.13;;
40591;SDS011;26301;42.832;23.918;2023-06-26T12:06:37;6.40;;;5.40;;
40591;SDS011;26301;42.832;23.918;2023-06-26T12:09:05;6.25;;;4.95;;
40591;SDS011;26301;42.832;23.918;2023-06-26T12:11:35;9.13;;;5.20;;
40591;SDS011;26301;42.832;23.918;2023-06-26T12:14:03;8.82;;;5.50;;
40591;SDS011;26301;42.832;23.918;2023-06-26T12:16:31;6.45;;;5.40;;
40591;SDS011;26301;42.832;23.918;2023-06-26T12:19:03;7.60;;;5.80;;
40591;SDS011;26301;42.832;23.918;2023-06-26T12:24:02;6.03;;;5.07;;
40591;SDS011;26301;42.832;23.918;2023-06-26T12:26:37;7.35;;;4.93;;
40591;SDS011;26301;42.832;23.918;2023-06-26T12:29:07;7.25;;;5.38;;
40591;SDS011;26301;42.832;23.918;2023-06-26T12:31:42;7.93;;;5.15;;
40591;SDS011;26301;42.832;23.918;2023-06-26T12:34:13;9.68;;;4.88;;
40591;SDS011;26301;42.832;23.918;2023-06-26T12:36:44;7.75;;;5.07;;
40591;SDS011;26301;42.832;23.918;2023-06-26T12:39:14;7.20;;;4.93;;
40591;SDS011;26301;42.832;23.918;2023-06-26T12:41:48;6.82;;;5.18;;
40591;SDS011;26301;42.832;23.918;2023-06-26T12:44:18;6.70;;;5.15;;
40591;SDS011;26301;42.832;23.918;2023-06-26T12:46:52;5.93;;;4.60;;
40591;SDS011;26301;42.832;23.918;2023-06-26T12:49:19;6.55;;;4.95;;
40591;SDS011;26301;42.832;23.918;2023-06-26T12:51:45;5.53;;;4.80;;
40591;SDS011;26301;42.832;23.918;2023-06-26T12:54:11;6.90;;;5.20;;
40591;SDS011;26301;42.832;23.918;2023-06-26T12:56:37;5.60;;;5.07;;
40591;SDS011;26301;42.832;23.918;2023-06-26T12:59:03;7.05;;;5.82;;
40591;SDS011;26301;42.832;23.918;2023-06-26T13:01:29;6.35;;;5.38;;
40591;SDS011;26301;42.832;23.918;2023-06-26T13:03:55;6.00;;;5.38;;
40591;SDS011;26301;42.832;23.918;2023-06-26T13:06:21;7.60;;;5.10;;
40591;SDS011;26301;42.832;23.918;2023-06-26T13:08:47;5.65;;;4.55;;
40591;SDS011;26301;42.832;23.918;2023-06-26T13:11:13;8.98;;;5.38;;
40591;SDS011;26301;42.832;23.918;2023-06-26T13:13:41;7.47;;;5.38;;
40591;SDS011;26301;42.832;23.918;2023-06-26T13:16:07;5.68;;;5.07;;
40591;SDS011;26301;42.832;23.918;2023-06-26T13:18:33;9.40;;;5.00;;
40591;SDS011;26301;42.832;23.918;2023-06-26T13:20:59;8.60;;;5.15;;
40591;SDS011;26301;42.832;23.918;2023-06-26T13:23:28;5.72;;;4.78;;
40591;SDS011;26301;42.832;23.918;2023-06-26T13:25:54;8.00;;;4.63;;
40591;SDS011;26301;42.832;23.918;2023-06-26T13:28:20;6.97;;;4.43;;
40591;SDS011;26301;42.832;23.918;2023-06-26T13:30:46;8.23;;;4.38;;
40591;SDS011;26301;42.832;23.918;2023-06-26T13:33:12;5.25;;;4.25;;
40591;SDS011;26301;42.832;23.918;2023-06-26T13:35:39;7.22;;;4.47;;
40591;SDS011;26301;42.832;23.918;2023-06-26T13:38:05;10.30;;;4.82;;
40591;SDS011;26301;42.832;23.918;2023-06-26T13:40:30;6.78;;;4.60;;
40591;SDS011;26301;42.832;23.918;2023-06-26T13:42:57;7.25;;;4.85;;
40591;SDS011;26301;42.832;23.918;2023-06-26T13:45:24;7.78;;;5.03;;
40591;SDS011;26301;42.832;23.918;2023-06-26T13:47:50;6.65;;;4.53;;
40591;SDS011;26301;42.832;23.918;2023-06-26T13:50:16;6.93;;;4.30;;
40591;SDS011;26301;42.832;23.918;2023-06-26T13:52:43;7.60;;;4.38;;
40591;SDS011;26301;42.832;23.918;2023-06-26T13:55:09;12.15;;;4.43;;
40591;SDS011;26301;42.832;23.918;2023-06-26T13:57:35;7.45;;;4.40;;
40591;SDS011;26301;42.832;23.918;2023-06-26T14:00:07;6.10;;;4.18;;
40591;SDS011;26301;42.832;23.918;2023-06-26T14:02:35;6.35;;;4.35;;
40591;SDS011;26301;42.832;23.918;2023-06-26T14:05:01;5.63;;;4.40;;
40591;SDS011;26301;42.832;23.918;2023-06-26T14:07:27;7.45;;;4.53;;
40591;SDS011;26301;42.832;23.918;2023-06-26T14:09:56;6.50;;;4.97;;
40591;SDS011;26301;42.832;23.918;2023-06-26T14:12:22;5.88;;;4.15;;
40591;SDS011;26301;42.832;23.918;2023-06-26T14:14:50;7.63;;;4.45;;
40591;SDS011;26301;42.832;23.918;2023-06-26T14:17:16;5.97;;;4.00;;
40591;SDS011;26301;42.832;23.918;2023-06-26T14:19:42;5.05;;;4.28;;
40591;SDS011;26301;42.832;23.918;2023-06-26T14:22:08;5.53;;;4.30;;
40591;SDS011;26301;42.832;23.918;2023-06-26T14:24:34;6.65;;;4.32;;
40591;SDS011;26301;42.832;23.918;2023-06-26T14:27:00;5.55;;;3.80;;
40591;SDS011;26301;42.832;23.918;2023-06-26T14:29:26;5.22;;;4.20;;
40591;SDS011;26301;42.832;23.918;2023-06-26T14:31:52;6.45;;;4.13;;
40591;SDS011;26301;42.832;23.918;2023-06-26T14:34:18;5.32;;;3.88;;
40591;SDS011;26301;42.832;23.918;2023-06-26T14:36:45;9.32;;;4.00;;
40591;SDS011;26301;42.832;23.918;2023-06-26T14:39:11;7.70;;;4.13;;
40591;SDS011;26301;42.832;23.918;2023-06-26T14:41:36;5.90;;;4.10;;
40591;SDS011;26301;42.832;23.918;2023-06-26T14:44:02;6.85;;;4.20;;
40591;SDS011;26301;42.832;23.918;2023-06-26T14:46:29;8.90;;;4.03;;
40591;SDS011;26301;42.832;23.918;2023-06-26T14:48:55;9.73;;;4.70;;
40591;SDS011;26301;42.832;23.918;2023-06-26T14:51:21;6.85;;;4.05;;